createdAt,value
2018-09-18T00:00:29.644Z,18.60
2018-09-18T00:02:58.014Z,18.60
2018-09-18T00:05:26.351Z,18.60
2018-09-18T00:07:54.779Z,18.60
2018-09-18T00:10:23.142Z,18.50
2018-09-18T00:12:51.565Z,18.50
2018-09-18T00:15:19.932Z,18.50
2018-09-18T00:17:48.351Z,18.50
2018-09-18T00:20:16.717Z,18.50
2018-09-18T00:22:45.252Z,18.50
2018-09-18T00:25:13.760Z,18.40
2018-09-18T00:27:42.161Z,18.40
2018-09-18T00:30:10.615Z,18.40
2018-09-18T00:32:39.017Z,18.40
2018-09-18T00:35:07.476Z,18.40
2018-09-18T00:37:35.901Z,18.30
2018-09-18T00:40:04.396Z,18.30
2018-09-18T00:42:32.851Z,18.30
2018-09-18T00:45:01.230Z,18.20
2018-09-18T00:47:29.651Z,18.20
2018-09-18T00:49:58.080Z,18.20
2018-09-18T00:52:26.423Z,18.20
2018-09-18T00:54:54.828Z,18.20
2018-09-18T00:57:23.170Z,18.10
2018-09-18T00:59:51.613Z,18.10
2018-09-18T01:02:20.034Z,18.10
2018-09-18T01:04:48.454Z,18.10
2018-09-18T01:07:16.863Z,18.10
2018-09-18T01:09:45.432Z,18.10
2018-09-18T01:12:13.846Z,18.00
2018-09-18T01:14:42.231Z,17.90
2018-09-18T01:17:10.626Z,17.90
2018-09-18T01:19:39.046Z,17.80
2018-09-18T01:22:07.480Z,17.80
2018-09-18T01:24:35.906Z,17.80
2018-09-18T01:27:04.289Z,17.80
2018-09-18T01:29:32.695Z,17.80
2018-09-18T01:32:01.041Z,17.70
2018-09-18T01:34:29.472Z,17.70
2018-09-18T01:36:57.862Z,17.70
2018-09-18T01:39:26.204Z,17.70
2018-09-18T01:41:54.589Z,17.60
2018-09-18T01:44:23.027Z,17.60
2018-09-18T01:46:51.381Z,17.60
2018-09-18T01:49:19.814Z,17.60
2018-09-18T01:51:48.167Z,17.60
2018-09-18T01:54:16.544Z,17.50
2018-09-18T01:56:44.884Z,17.50
2018-09-18T01:59:13.269Z,17.50
2018-09-18T02:01:41.693Z,17.50
2018-09-18T02:04:10.073Z,17.40
2018-09-18T02:06:38.508Z,17.40
2018-09-18T02:09:07.407Z,17.40
2018-09-18T02:11:35.862Z,17.30
2018-09-18T02:14:04.226Z,17.30
2018-09-18T02:16:32.760Z,17.40
2018-09-18T02:19:01.126Z,17.40
2018-09-18T02:21:29.485Z,17.30
2018-09-18T02:23:57.956Z,17.40
2018-09-18T02:26:26.348Z,17.40
2018-09-18T02:28:54.751Z,17.40
2018-09-18T02:31:23.110Z,17.40
2018-09-18T02:33:51.621Z,17.30
2018-09-18T02:36:19.991Z,17.30
2018-09-18T02:38:48.791Z,17.30
2018-09-18T02:41:17.214Z,17.30
2018-09-18T02:43:45.632Z,17.20
2018-09-18T02:46:14.024Z,17.10
2018-09-18T02:48:42.509Z,17.10
2018-09-18T02:51:11.340Z,17.00
2018-09-18T02:53:40.075Z,17.00
2018-09-18T02:56:08.557Z,17.10
2018-09-18T02:58:36.893Z,17.10
2018-09-18T03:01:05.432Z,17.10
2018-09-18T03:03:33.814Z,17.10
2018-09-18T03:06:02.225Z,17.10
2018-09-18T03:08:30.599Z,17.10
2018-09-18T03:10:59.043Z,17.10
2018-09-18T03:13:27.444Z,17.10
2018-09-18T03:15:55.874Z,17.00
2018-09-18T03:18:24.220Z,16.90
2018-09-18T03:20:52.971Z,16.90
2018-09-18T03:23:21.383Z,16.90
2018-09-18T03:25:49.808Z,16.90
2018-09-18T03:28:18.178Z,16.90
2018-09-18T03:30:46.569Z,16.90
2018-09-18T03:33:14.912Z,16.90
2018-09-18T03:35:43.625Z,16.80
2018-09-18T03:38:11.949Z,16.70
2018-09-18T03:40:40.347Z,16.80
2018-09-18T03:43:08.710Z,16.70
2018-09-18T03:45:37.257Z,16.70
2018-09-18T03:48:05.633Z,16.60
2018-09-18T03:50:34.059Z,16.70
2018-09-18T03:53:02.430Z,16.70
2018-09-18T03:55:30.921Z,16.60
2018-09-18T03:57:59.287Z,16.60
2018-09-18T04:00:27.798Z,16.60
2018-09-18T04:02:56.182Z,16.60
2018-09-18T04:05:25.543Z,16.60
2018-09-18T04:07:54.083Z,16.60
2018-09-18T04:10:22.614Z,16.50
2018-09-18T04:12:51.141Z,16.60
2018-09-18T04:15:19.547Z,16.60
2018-09-18T04:17:48.001Z,16.50
2018-09-18T04:20:16.456Z,16.40
2018-09-18T04:22:44.826Z,16.40
2018-09-18T04:25:13.233Z,16.30
2018-09-18T04:27:41.641Z,16.30
2018-09-18T04:30:10.151Z,16.30
2018-09-18T04:32:38.508Z,16.30
2018-09-18T04:35:06.886Z,16.20
2018-09-18T04:37:35.281Z,16.30
2018-09-18T04:40:03.711Z,16.20
2018-09-18T04:42:32.093Z,16.30
2018-09-18T04:45:00.480Z,16.30
2018-09-18T04:47:28.901Z,16.30
2018-09-18T04:49:57.280Z,16.20
2018-09-18T04:52:25.713Z,16.30
2018-09-18T04:54:54.152Z,16.20
2018-09-18T04:57:22.502Z,16.20
2018-09-18T04:59:50.859Z,16.20
2018-09-18T05:02:19.240Z,16.10
2018-09-18T05:04:47.668Z,16.20
2018-09-18T05:07:16.080Z,16.10
2018-09-18T05:09:44.482Z,16.10
2018-09-18T05:12:12.914Z,16.20
2018-09-18T05:14:41.284Z,16.10
2018-09-18T05:17:09.652Z,16.10
2018-09-18T05:19:37.983Z,16.20
2018-09-18T05:22:06.420Z,16.10
2018-09-18T05:24:34.797Z,16.10
2018-09-18T05:27:03.159Z,16.10
2018-09-18T05:29:31.536Z,16.10
2018-09-18T05:31:59.943Z,16.10
2018-09-18T05:34:28.365Z,16.20
2018-09-18T05:36:56.749Z,16.30
2018-09-18T05:39:25.111Z,16.30
2018-09-18T05:41:53.568Z,16.30
2018-09-18T05:44:22.013Z,16.30
2018-09-18T05:46:50.494Z,16.40
2018-09-18T05:49:18.917Z,16.30
2018-09-18T05:51:47.391Z,16.30
2018-09-18T05:54:15.766Z,16.40
2018-09-18T05:56:44.462Z,16.40
2018-09-18T05:59:12.810Z,16.50
2018-09-18T06:01:41.294Z,16.50
2018-09-18T06:04:09.996Z,16.40
2018-09-18T06:06:38.400Z,16.40
2018-09-18T06:09:09.145Z,16.50
2018-09-18T06:11:37.617Z,16.60
2018-09-18T06:14:06.014Z,16.70
2018-09-18T06:16:34.781Z,16.70
2018-09-18T06:19:04.171Z,16.70
2018-09-18T06:21:32.660Z,16.80
2018-09-18T06:24:01.282Z,16.90
2018-09-18T06:26:29.698Z,17.00
2018-09-18T06:28:58.632Z,17.00
2018-09-18T06:31:27.069Z,17.00
2018-09-18T06:33:55.577Z,17.00
2018-09-18T06:36:24.178Z,17.20
2018-09-18T06:38:52.572Z,17.30
2018-09-18T06:41:21.025Z,17.30
2018-09-18T06:43:49.462Z,17.40
2018-09-18T06:46:17.842Z,17.50
2018-09-18T06:48:46.313Z,17.60
2018-09-18T06:51:14.691Z,17.70
2018-09-18T06:53:43.220Z,17.90
2018-09-18T06:56:11.672Z,18.00
2018-09-18T06:58:40.235Z,18.10
2018-09-18T07:01:08.850Z,18.20
2018-09-18T07:03:37.367Z,18.30
2018-09-18T07:06:05.903Z,18.40
2018-09-18T07:08:34.315Z,18.40
2018-09-18T07:11:02.891Z,18.60
2018-09-18T07:13:31.338Z,18.70
2018-09-18T07:15:59.744Z,18.80
2018-09-18T07:18:28.183Z,18.80
2018-09-18T07:20:56.644Z,18.80
2018-09-18T07:23:25.056Z,18.90
2018-09-18T07:25:53.513Z,18.90
2018-09-18T07:28:21.990Z,18.90
2018-09-18T07:30:50.341Z,19.00
2018-09-18T07:33:18.759Z,19.10
2018-09-18T07:35:47.188Z,19.30
2018-09-18T07:38:15.617Z,19.50
2018-09-18T07:40:44.031Z,19.70
2018-09-18T07:43:12.451Z,20.00
2018-09-18T07:45:40.826Z,20.20
2018-09-18T07:48:09.257Z,20.40
2018-09-18T07:50:37.667Z,20.60
2018-09-18T07:53:06.367Z,20.80
2018-09-18T07:55:34.782Z,21.00
2018-09-18T07:58:03.180Z,21.30
2018-09-18T08:00:31.565Z,21.40
2018-09-18T08:02:59.973Z,21.50
2018-09-18T08:05:28.381Z,21.70
2018-09-18T08:07:56.841Z,21.90
2018-09-18T08:10:25.462Z,22.20
2018-09-18T08:12:53.883Z,22.40
2018-09-18T08:15:22.295Z,22.70
2018-09-18T08:17:50.719Z,22.90
2018-09-18T08:20:19.191Z,23.10
2018-09-18T08:22:47.608Z,23.20
2018-09-18T08:25:16.114Z,23.50
2018-09-18T08:27:44.478Z,23.60
2018-09-18T08:30:12.825Z,23.80
2018-09-18T08:32:41.362Z,24.00
2018-09-18T08:35:09.744Z,24.10
2018-09-18T08:37:38.084Z,24.30
2018-09-18T08:40:06.521Z,24.30
2018-09-18T08:42:34.977Z,24.50
2018-09-18T08:45:03.394Z,24.60
2018-09-18T08:47:31.729Z,24.80
2018-09-18T08:50:00.256Z,24.90
2018-09-18T08:52:28.659Z,25.00
2018-09-18T08:54:57.030Z,25.10
2018-09-18T08:57:25.420Z,25.30
2018-09-18T08:59:53.960Z,25.40
2018-09-18T09:02:22.410Z,25.60
2018-09-18T09:04:50.867Z,25.90
2018-09-18T09:07:19.262Z,26.10
2018-09-18T09:09:47.661Z,26.50
2018-09-18T09:12:16.041Z,26.50
2018-09-18T09:14:44.522Z,26.90
2018-09-18T09:17:12.849Z,26.90
2018-09-18T09:19:41.290Z,26.80
2018-09-18T09:22:09.713Z,26.80
2018-09-18T09:24:38.427Z,27.00
2018-09-18T09:27:06.916Z,27.40
2018-09-18T09:29:35.402Z,27.40
2018-09-18T09:32:03.747Z,27.40
2018-09-18T09:34:32.113Z,27.50
2018-09-18T09:37:00.577Z,27.70
2018-09-18T09:39:29.032Z,27.70
2018-09-18T09:41:57.534Z,27.60
2018-09-18T09:44:25.988Z,27.70
2018-09-18T09:46:54.372Z,27.70
2018-09-18T09:49:22.787Z,28.00
2018-09-18T09:51:51.205Z,28.30
2018-09-18T09:54:19.618Z,28.50
2018-09-18T09:56:48.076Z,28.60
2018-09-18T09:59:16.451Z,28.80
2018-09-18T10:01:55.193Z,28.80
2018-09-18T10:04:24.015Z,29.10
2018-09-18T10:06:52.542Z,29.30
2018-09-18T10:09:20.920Z,29.50
2018-09-18T10:11:49.350Z,29.50
2018-09-18T10:14:17.738Z,29.80
2018-09-18T10:16:46.124Z,29.80
2018-09-18T10:19:14.514Z,29.80
2018-09-18T10:21:42.904Z,30.00
2018-09-18T10:24:11.335Z,30.10
2018-09-18T10:26:40.151Z,30.30
2018-09-18T10:29:08.693Z,30.80
2018-09-18T10:31:37.199Z,31.00
2018-09-18T10:34:05.737Z,31.00
2018-09-18T10:36:34.179Z,31.00
2018-09-18T10:39:02.648Z,31.10
2018-09-18T10:41:31.230Z,31.10
2018-09-18T10:43:59.774Z,31.10
2018-09-18T10:46:28.145Z,31.40
2018-09-18T10:48:57.631Z,31.70
2018-09-18T10:51:26.274Z,31.70
2018-09-18T10:53:55.293Z,31.70
2018-09-18T10:56:23.836Z,31.90
2018-09-18T10:58:52.218Z,32.00
2018-09-18T11:01:20.753Z,32.00
2018-09-18T11:03:49.193Z,32.10
2018-09-18T11:06:17.618Z,32.00
2018-09-18T11:08:46.067Z,31.90
2018-09-18T11:11:14.575Z,32.00
2018-09-18T11:13:43.048Z,32.10
2018-09-18T11:16:11.600Z,32.20
2018-09-18T11:18:39.878Z,32.20
2018-09-18T11:21:08.313Z,32.30
2018-09-18T11:23:36.717Z,32.50
2018-09-18T11:26:05.162Z,32.50
2018-09-18T11:28:33.736Z,32.50
2018-09-18T11:31:02.173Z,32.70
2018-09-18T11:33:30.612Z,32.90
2018-09-18T11:35:59.097Z,32.90
2018-09-18T11:38:27.624Z,33.00
2018-09-18T11:40:56.129Z,33.10
2018-09-18T11:43:24.524Z,33.30
2018-09-18T11:45:53.344Z,33.40
2018-09-18T11:48:21.629Z,33.30
2018-09-18T11:50:50.154Z,33.20
2018-09-18T11:53:18.520Z,33.20
2018-09-18T11:55:46.959Z,33.20
2018-09-18T11:58:15.369Z,33.40
2018-09-18T12:00:43.800Z,33.40
2018-09-18T12:03:12.248Z,33.40
2018-09-18T12:05:40.782Z,33.60
2018-09-18T12:08:09.269Z,33.60
2018-09-18T12:10:37.692Z,33.90
2018-09-18T12:13:06.152Z,33.70
2018-09-18T12:15:34.590Z,33.70
2018-09-18T12:18:03.100Z,33.60
2018-09-18T12:20:31.628Z,33.50
2018-09-18T12:23:00.081Z,33.60
2018-09-18T12:25:28.620Z,34.00
2018-09-18T12:27:57.027Z,34.20
2018-09-18T12:30:25.533Z,34.40
2018-09-18T12:32:53.967Z,34.50
2018-09-18T12:35:22.472Z,34.30
2018-09-18T12:37:50.918Z,34.40
2018-09-18T12:40:19.277Z,34.60
2018-09-18T12:42:47.753Z,34.50
2018-09-18T12:45:16.246Z,34.50
2018-09-18T12:47:44.624Z,34.60
2018-09-18T12:50:13.397Z,34.60
2018-09-18T12:52:41.716Z,34.70
2018-09-18T12:55:10.165Z,34.50
2018-09-18T12:57:38.848Z,34.50
2018-09-18T13:00:07.392Z,34.80
2018-09-18T13:02:35.820Z,35.10
2018-09-18T13:05:04.276Z,35.20
2018-09-18T13:07:32.767Z,35.20
2018-09-18T13:10:01.224Z,35.30
2018-09-18T13:12:29.662Z,35.00
2018-09-18T13:14:58.136Z,34.90
2018-09-18T13:17:26.595Z,35.00
2018-09-18T13:19:55.153Z,35.10
2018-09-18T13:22:23.588Z,35.30
2018-09-18T13:24:52.039Z,35.20
2018-09-18T13:27:20.499Z,34.90
2018-09-18T13:29:49.267Z,35.10
2018-09-18T13:32:17.949Z,35.50
2018-09-18T13:34:46.376Z,35.40
2018-09-18T13:37:14.795Z,35.40
2018-09-18T13:39:43.272Z,35.20
2018-09-18T13:42:11.810Z,35.30
2018-09-18T13:44:40.302Z,34.90
2018-09-18T13:47:08.739Z,34.90
2018-09-18T13:49:37.158Z,34.70
2018-09-18T13:52:05.582Z,34.70
2018-09-18T13:54:33.978Z,34.60
2018-09-18T13:57:02.447Z,34.60
2018-09-18T13:59:30.874Z,34.70
2018-09-18T14:01:59.437Z,35.00
2018-09-18T14:04:28.017Z,34.90
2018-09-18T14:06:56.556Z,34.90
2018-09-18T14:09:25.306Z,34.70
2018-09-18T14:11:53.739Z,34.40
2018-09-18T14:14:22.262Z,34.30
2018-09-18T14:16:50.649Z,34.10
2018-09-18T14:19:19.061Z,34.10
2018-09-18T14:21:47.781Z,34.20
2018-09-18T14:24:16.249Z,34.10
2018-09-18T14:26:44.732Z,34.20
2018-09-18T14:29:13.155Z,34.40
2018-09-18T14:31:41.781Z,34.10
2018-09-18T14:34:10.147Z,34.40
2018-09-18T14:36:38.613Z,34.30
2018-09-18T14:39:09.081Z,34.40
2018-09-18T14:41:37.774Z,34.30
2018-09-18T14:44:06.189Z,34.30
2018-09-18T14:46:34.675Z,34.50
2018-09-18T14:49:03.113Z,34.30
2018-09-18T14:51:31.768Z,34.40
2018-09-18T14:54:00.150Z,34.50
2018-09-18T14:56:28.606Z,34.60
2018-09-18T14:58:57.125Z,34.80
2018-09-18T15:01:25.627Z,34.40
2018-09-18T15:03:54.041Z,34.20
2018-09-18T15:06:22.501Z,34.20
2018-09-18T15:08:50.905Z,34.50
2018-09-18T15:11:19.304Z,34.50
2018-09-18T15:13:47.718Z,34.40
2018-09-18T15:16:16.199Z,34.20
2018-09-18T15:18:44.613Z,34.10
2018-09-18T15:21:12.995Z,34.00
2018-09-18T15:23:41.437Z,34.00
2018-09-18T15:26:09.851Z,34.00
2018-09-18T15:28:38.276Z,34.00
2018-09-18T15:31:07.456Z,34.10
2018-09-18T15:33:35.965Z,34.00
2018-09-18T15:36:04.464Z,33.90
2018-09-18T15:38:32.928Z,33.80
2018-09-18T15:41:01.359Z,33.70
2018-09-18T15:43:29.858Z,33.70
2018-09-18T15:45:58.300Z,33.50
2018-09-18T15:48:26.810Z,33.30
2018-09-18T15:50:55.218Z,33.40
2018-09-18T15:53:23.733Z,33.40
2018-09-18T15:55:52.179Z,33.20
2018-09-18T15:58:20.574Z,32.90
2018-09-18T16:00:49.030Z,32.70
2018-09-18T16:03:17.766Z,32.70
2018-09-18T16:05:46.139Z,32.70
2018-09-18T16:08:14.775Z,32.70
2018-09-18T16:10:43.236Z,32.60
2018-09-18T16:13:11.755Z,32.30
2018-09-18T16:15:40.128Z,32.20
2018-09-18T16:18:08.709Z,32.10
2018-09-18T16:20:37.130Z,32.00
2018-09-18T16:23:05.556Z,31.90
2018-09-18T16:25:33.933Z,31.90
2018-09-18T16:28:02.335Z,31.80
2018-09-18T16:30:30.802Z,31.60
2018-09-18T16:32:59.187Z,31.50
2018-09-18T16:35:27.629Z,31.50
2018-09-18T16:37:56.074Z,31.40
2018-09-18T16:40:24.519Z,31.20
2018-09-18T16:42:52.822Z,31.10
2018-09-18T16:45:21.223Z,31.00
2018-09-18T16:47:49.714Z,30.90
2018-09-18T16:50:18.152Z,30.80
2018-09-18T16:52:46.568Z,30.70
2018-09-18T16:55:15.112Z,30.70
2018-09-18T16:57:43.469Z,30.50
2018-09-18T17:00:11.921Z,30.40
2018-09-18T17:02:40.434Z,30.30
2018-09-18T17:05:08.901Z,30.20
2018-09-18T17:07:37.565Z,30.10
2018-09-18T17:10:05.987Z,30.00
2018-09-18T17:12:34.484Z,29.90
2018-09-18T17:15:03.215Z,29.80
2018-09-18T17:17:31.609Z,29.80
2018-09-18T17:20:00.031Z,29.70
2018-09-18T17:22:28.426Z,29.60
2018-09-18T17:24:56.808Z,29.40
2018-09-18T17:27:25.311Z,29.30
2018-09-18T17:29:53.770Z,29.20
2018-09-18T17:32:22.160Z,29.10
2018-09-18T17:34:50.587Z,29.00
2018-09-18T17:37:19.111Z,28.90
2018-09-18T17:39:47.574Z,28.70
2018-09-18T17:42:15.985Z,28.50
2018-09-18T17:44:44.424Z,28.40
2018-09-18T17:47:12.831Z,28.40
2018-09-18T17:49:41.297Z,28.40
2018-09-18T17:52:09.822Z,28.30
2018-09-18T17:54:38.349Z,28.30
2018-09-18T17:57:07.476Z,28.30
2018-09-18T17:59:37.756Z,28.00
2018-09-18T18:02:06.868Z,27.70
2018-09-18T18:04:35.364Z,27.50
2018-09-18T18:07:03.932Z,27.30
2018-09-18T18:09:32.453Z,27.30
2018-09-18T18:12:00.927Z,27.30
2018-09-18T18:14:29.466Z,27.40
2018-09-18T18:16:58.028Z,27.30
2018-09-18T18:19:26.551Z,27.30
2018-09-18T18:21:54.961Z,27.30
2018-09-18T18:24:23.492Z,27.20
2018-09-18T18:26:51.955Z,27.20
2018-09-18T18:29:20.444Z,27.20
2018-09-18T18:31:48.962Z,27.10
2018-09-18T18:34:17.474Z,27.10
2018-09-18T18:36:46.042Z,27.00
2018-09-18T18:39:14.500Z,26.80
2018-09-18T18:41:43.060Z,26.80
2018-09-18T18:44:11.508Z,26.70
2018-09-18T18:46:39.951Z,26.70
2018-09-18T18:49:08.473Z,26.60
2018-09-18T18:51:36.896Z,26.60
2018-09-18T18:54:05.459Z,26.60
2018-09-18T18:56:33.916Z,26.50
2018-09-18T18:59:02.343Z,26.40
2018-09-18T19:04:05.638Z,26.30
2018-09-18T19:06:34.295Z,26.20
2018-09-18T19:09:02.594Z,26.20
2018-09-18T19:11:31.038Z,26.10
2018-09-18T19:13:59.514Z,26.00
2018-09-18T19:16:27.947Z,25.90
2018-09-18T19:18:56.401Z,25.90
2018-09-18T19:21:24.876Z,25.80
2018-09-18T19:23:53.332Z,25.80
2018-09-18T19:26:21.768Z,25.70
2018-09-18T19:28:50.253Z,25.70
2018-09-18T19:31:18.689Z,25.60
2018-09-18T19:33:47.195Z,25.60
2018-09-18T19:36:15.651Z,25.50
2018-09-18T19:38:44.106Z,25.50
2018-09-18T19:41:13.092Z,25.40
2018-09-18T19:43:41.555Z,25.40
2018-09-18T19:46:10.009Z,25.30
2018-09-18T19:48:38.600Z,25.30
2018-09-18T19:51:07.030Z,25.20
2018-09-18T19:53:35.507Z,25.10
2018-09-18T19:56:03.940Z,25.00
2018-09-18T19:58:32.415Z,25.00
2018-09-18T20:01:01.066Z,24.90
2018-09-18T20:03:29.545Z,24.90
2018-09-18T20:05:58.079Z,24.80
2018-09-18T20:08:26.564Z,24.80
2018-09-18T20:10:55.076Z,24.70
2018-09-18T20:13:23.601Z,24.70
2018-09-18T20:15:52.021Z,24.70
2018-09-18T20:18:20.586Z,24.60
2018-09-18T20:20:49.059Z,24.60
2018-09-18T20:23:17.545Z,24.60
2018-09-18T20:25:46.006Z,24.50
2018-09-18T20:28:15.022Z,24.50
2018-09-18T20:30:43.488Z,24.40
2018-09-18T20:33:12.192Z,24.30
2018-09-18T20:35:40.754Z,24.30
2018-09-18T20:38:09.230Z,24.20
2018-09-18T20:40:37.670Z,24.20
2018-09-18T20:43:06.122Z,24.10
2018-09-18T20:45:34.517Z,24.10
2018-09-18T20:48:02.977Z,24.10
2018-09-18T20:50:31.542Z,24.10
2018-09-18T20:52:59.949Z,24.00
2018-09-18T20:55:28.437Z,24.00
2018-09-18T20:57:56.898Z,23.90
2018-09-18T21:00:25.369Z,23.90
2018-09-18T21:02:54.006Z,23.90
2018-09-18T21:05:22.513Z,23.90
2018-09-18T21:07:50.957Z,23.80
2018-09-18T21:10:19.356Z,23.80
2018-09-18T21:12:47.864Z,23.80
2018-09-18T21:15:16.289Z,23.80
2018-09-18T21:17:44.757Z,23.80
2018-09-18T21:20:13.157Z,23.80
2018-09-18T21:22:41.627Z,23.80
2018-09-18T21:25:14.974Z,23.70
2018-09-18T21:27:44.665Z,23.70
2018-09-18T21:30:13.944Z,23.60
2018-09-18T21:32:42.384Z,23.60
2018-09-18T21:35:10.809Z,23.60
2018-09-18T21:37:39.600Z,23.50
2018-09-18T21:40:08.059Z,23.50
2018-09-18T21:42:36.568Z,23.50
2018-09-18T21:45:05.029Z,23.50
2018-09-18T21:47:33.587Z,23.40
2018-09-18T21:50:02.109Z,23.40
2018-09-18T21:52:30.563Z,23.40
2018-09-18T21:54:59.061Z,23.30
2018-09-18T21:57:27.430Z,23.30
2018-09-18T21:59:55.995Z,23.20
2018-09-18T22:02:24.469Z,23.20
2018-09-18T22:04:52.982Z,23.20
2018-09-18T22:07:21.383Z,23.20
2018-09-18T22:09:49.798Z,23.10
2018-09-18T22:12:18.325Z,23.10
2018-09-18T22:14:46.752Z,23.10
2018-09-18T22:17:15.158Z,23.20
2018-09-18T22:19:43.581Z,23.10
2018-09-18T22:22:11.985Z,23.10
2018-09-18T22:24:40.449Z,23.10
2018-09-18T22:27:08.916Z,23.10
2018-09-18T22:29:37.378Z,23.00
2018-09-18T22:32:05.774Z,23.00
2018-09-18T22:34:34.171Z,22.90
2018-09-18T22:37:02.568Z,22.90
2018-09-18T22:39:30.974Z,22.90
2018-09-18T22:41:59.409Z,22.90
2018-09-18T22:44:27.884Z,22.80
2018-09-18T22:46:56.392Z,22.70
2018-09-18T22:49:24.799Z,22.70
2018-09-18T22:51:53.172Z,22.80
2018-09-18T22:54:21.512Z,22.80
2018-09-18T22:56:49.934Z,22.70
2018-09-18T22:59:18.287Z,22.70
2018-09-18T23:01:46.737Z,22.70
2018-09-18T23:04:15.114Z,22.60
2018-09-18T23:06:43.529Z,22.60
2018-09-18T23:09:11.900Z,22.50
2018-09-18T23:11:40.334Z,22.50
2018-09-18T23:14:08.670Z,22.40
2018-09-18T23:16:37.075Z,22.40
2018-09-18T23:19:05.564Z,22.40
2018-09-18T23:21:33.964Z,22.40
2018-09-18T23:24:02.404Z,22.40
2018-09-18T23:26:30.776Z,22.30
2018-09-18T23:28:59.171Z,22.30
2018-09-18T23:31:27.589Z,22.20
2018-09-18T23:33:55.993Z,22.20
2018-09-18T23:36:24.383Z,22.10
2018-09-18T23:38:52.791Z,22.10
2018-09-18T23:41:21.139Z,22.10
2018-09-18T23:43:49.551Z,22.00
2018-09-18T23:46:17.912Z,22.00
2018-09-18T23:48:46.333Z,21.90
2018-09-18T23:51:14.706Z,21.80
2018-09-18T23:53:43.095Z,21.70
2018-09-18T23:56:11.474Z,21.70
2018-09-18T23:58:39.981Z,21.70
